createdAt,value
2019-02-06T00:00:44.057Z,-0.52
2019-02-06T00:03:19.176Z,-0.54
2019-02-06T00:05:51.992Z,-0.54
2019-02-06T00:08:22.657Z,-0.56
2019-02-06T00:10:56.263Z,-0.59
2019-02-06T00:13:26.777Z,-0.61
2019-02-06T00:15:57.195Z,-0.63
2019-02-06T00:18:27.623Z,-0.61
2019-02-06T00:20:58.093Z,-0.63
2019-02-06T00:23:28.550Z,-0.65
2019-02-06T00:25:59.103Z,-0.64
2019-02-06T00:28:29.721Z,-0.68
2019-02-06T00:31:03.102Z,-0.70
2019-02-06T00:33:33.594Z,-0.71
2019-02-06T00:36:04.159Z,-0.72
2019-02-06T00:38:34.681Z,-0.71
2019-02-06T00:41:05.326Z,-0.72
2019-02-06T00:43:35.867Z,-0.74
2019-02-06T00:46:06.311Z,-0.74
2019-02-06T00:48:36.758Z,-0.78
2019-02-06T00:51:07.286Z,-0.81
2019-02-06T00:53:38.502Z,-0.82
2019-02-06T00:56:12.266Z,-0.82
2019-02-06T00:58:45.716Z,-0.88
2019-02-06T01:01:16.086Z,-0.87
2019-02-06T01:03:46.487Z,-0.87
2019-02-06T01:06:16.845Z,-0.85
2019-02-06T01:08:47.648Z,-0.86
2019-02-06T01:11:18.005Z,-0.92
2019-02-06T01:13:48.405Z,-0.90
2019-02-06T01:16:18.827Z,-0.95
2019-02-06T01:18:49.274Z,-1.00
2019-02-06T01:21:19.661Z,-1.03
2019-02-06T01:23:52.247Z,-1.03
2019-02-06T01:26:22.562Z,-1.05
2019-02-06T01:28:53.010Z,-1.08
2019-02-06T01:31:25.394Z,-1.11
2019-02-06T01:33:55.922Z,-1.09
2019-02-06T01:36:26.906Z,-1.08
2019-02-06T01:38:57.378Z,-1.11
2019-02-06T01:41:27.787Z,-1.13
2019-02-06T01:43:58.318Z,-1.12
2019-02-06T01:46:28.799Z,-1.10
2019-02-06T01:48:59.290Z,-1.14
2019-02-06T01:51:29.749Z,-1.18
2019-02-06T01:54:00.427Z,-1.19
2019-02-06T01:56:30.896Z,-1.22
2019-02-06T01:59:01.338Z,-1.24
2019-02-06T02:01:31.764Z,-1.23
2019-02-06T02:04:02.175Z,-1.20
2019-02-06T02:06:32.644Z,-1.21
2019-02-06T02:09:07.540Z,-1.23
2019-02-06T02:11:40.255Z,-1.23
2019-02-06T02:14:12.888Z,-1.24
2019-02-06T02:16:43.497Z,-1.22
2019-02-06T02:19:14.419Z,-1.23
2019-02-06T02:21:44.953Z,-1.27
2019-02-06T02:24:18.492Z,-1.26
2019-02-06T02:26:49.168Z,-1.28
2019-02-06T02:29:19.631Z,-1.27
2019-02-06T02:31:50.074Z,-1.26
2019-02-06T02:34:20.492Z,-1.24
2019-02-06T02:36:50.924Z,-1.23
2019-02-06T02:39:21.435Z,-1.28
2019-02-06T02:41:51.799Z,-1.31
2019-02-06T02:44:22.891Z,-1.29
2019-02-06T02:46:55.411Z,-1.28
2019-02-06T02:49:26.123Z,-1.36
2019-02-06T02:51:58.595Z,-1.35
2019-02-06T02:54:29.055Z,-1.37
2019-02-06T02:56:59.804Z,-1.34
2019-02-06T02:59:30.264Z,-1.32
2019-02-06T03:02:18.040Z,-1.38
2019-02-06T03:04:52.839Z,-1.38
2019-02-06T03:07:23.406Z,-1.36
2019-02-06T03:09:53.905Z,-1.39
2019-02-06T03:12:24.347Z,-1.40
2019-02-06T03:14:54.834Z,-1.41
2019-02-06T03:17:25.198Z,-1.44
2019-02-06T03:19:55.601Z,-1.46
2019-02-06T03:22:26.000Z,-1.46
2019-02-06T03:24:56.373Z,-1.46
2019-02-06T03:27:26.999Z,-1.48
2019-02-06T03:29:57.434Z,-1.52
2019-02-06T03:32:27.928Z,-1.50
2019-02-06T03:34:58.629Z,-1.46
2019-02-06T03:37:29.325Z,-1.53
2019-02-06T03:40:00.221Z,-1.56
2019-02-06T03:42:32.463Z,-1.63
2019-02-06T03:45:02.853Z,-1.65
2019-02-06T03:47:33.287Z,-1.68
2019-02-06T03:50:06.702Z,-1.62
2019-02-06T03:52:38.747Z,-1.65
2019-02-06T03:55:11.738Z,-1.68
2019-02-06T03:57:42.087Z,-1.67
2019-02-06T04:00:14.453Z,-1.68
2019-02-06T04:02:45.197Z,-1.67
2019-02-06T04:05:15.923Z,-1.65
2019-02-06T04:07:46.283Z,-1.69
2019-02-06T04:10:16.755Z,-1.68
2019-02-06T04:12:47.227Z,-1.67
2019-02-06T04:15:18.250Z,-1.67
2019-02-06T04:17:48.513Z,-1.69
2019-02-06T04:20:19.077Z,-1.70
2019-02-06T04:22:49.507Z,-1.70
2019-02-06T04:25:21.701Z,-1.73
2019-02-06T04:27:55.437Z,-1.77
2019-02-06T04:30:25.853Z,-1.76
2019-02-06T04:32:56.258Z,-1.73
2019-02-06T04:35:26.679Z,-1.76
2019-02-06T04:37:57.070Z,-1.78
2019-02-06T04:40:29.786Z,-1.78
2019-02-06T04:43:03.212Z,-1.78
2019-02-06T04:45:33.884Z,-1.85
2019-02-06T04:48:04.295Z,-1.85
2019-02-06T04:50:34.664Z,-1.86
2019-02-06T04:53:05.915Z,-1.86
2019-02-06T04:55:36.336Z,-1.87
2019-02-06T04:58:06.834Z,-1.85
2019-02-06T05:00:37.263Z,-1.82
2019-02-06T05:03:07.670Z,-1.87
2019-02-06T05:05:38.056Z,-1.88
2019-02-06T05:08:10.250Z,-1.90
2019-02-06T05:10:42.079Z,-1.85
2019-02-06T05:13:12.614Z,-1.88
2019-02-06T05:15:43.042Z,-1.85
2019-02-06T05:18:13.493Z,-1.86
2019-02-06T05:20:44.944Z,-1.85
2019-02-06T05:23:15.625Z,-1.85
2019-02-06T05:25:46.709Z,-1.88
2019-02-06T05:28:18.185Z,-1.84
2019-02-06T05:30:48.947Z,-1.79
2019-02-06T05:33:21.476Z,-1.79
2019-02-06T05:36:13.626Z,-1.80
2019-02-06T05:38:47.617Z,-1.76
2019-02-06T05:41:18.185Z,-1.79
2019-02-06T05:43:48.689Z,-1.79
2019-02-06T05:46:19.485Z,-1.77
2019-02-06T05:48:49.965Z,-1.78
2019-02-06T05:51:20.375Z,-1.76
2019-02-06T05:53:50.792Z,-1.79
2019-02-06T05:56:21.249Z,-1.77
2019-02-06T05:58:51.707Z,-1.74
2019-02-06T06:01:25.671Z,-1.85
2019-02-06T06:03:56.095Z,-1.91
2019-02-06T06:06:26.579Z,-1.97
2019-02-06T06:08:57.001Z,-1.95
2019-02-06T06:11:27.463Z,-1.95
2019-02-06T06:14:01.898Z,-2.01
2019-02-06T06:16:32.528Z,-2.00
2019-02-06T06:19:05.971Z,-1.95
2019-02-06T06:21:44.387Z,-1.96
2019-02-06T06:24:14.944Z,-1.99
2019-02-06T06:26:45.369Z,-1.96
2019-02-06T06:29:15.752Z,-2.00
2019-02-06T06:31:46.179Z,-2.01
2019-02-06T06:34:21.057Z,-2.04
2019-02-06T06:36:51.471Z,-1.95
2019-02-06T06:39:23.775Z,-1.91
2019-02-06T06:41:54.370Z,-1.94
2019-02-06T06:44:27.199Z,-1.94
2019-02-06T06:46:58.544Z,-1.89
2019-02-06T06:49:29.005Z,-1.93
2019-02-06T06:51:59.677Z,-2.09
2019-02-06T06:54:30.490Z,-2.20
2019-02-06T06:57:01.084Z,-2.12
2019-02-06T06:59:31.539Z,-2.16
2019-02-06T07:02:04.342Z,-2.20
2019-02-06T07:04:34.723Z,-2.21
2019-02-06T07:07:05.208Z,-2.15
2019-02-06T07:09:36.184Z,-2.03
2019-02-06T07:12:08.847Z,-2.09
2019-02-06T07:14:41.530Z,-2.04
2019-02-06T07:17:11.988Z,-2.00
2019-02-06T07:19:42.517Z,-2.03
2019-02-06T07:22:12.983Z,-1.97
2019-02-06T07:24:43.908Z,-1.99
2019-02-06T07:27:16.428Z,-1.97
2019-02-06T07:29:47.129Z,-1.99
2019-02-06T07:32:20.971Z,-1.96
2019-02-06T07:34:54.351Z,-1.93
2019-02-06T07:37:26.362Z,-1.90
2019-02-06T07:40:09.816Z,-1.90
2019-02-06T07:42:41.406Z,-1.86
2019-02-06T07:45:12.536Z,-1.81
2019-02-06T07:47:42.963Z,-1.80
2019-02-06T07:50:19.123Z,-1.69
2019-02-06T07:52:52.373Z,-1.64
2019-02-06T07:55:22.918Z,-1.65
2019-02-06T07:57:55.023Z,-1.59
2019-02-06T08:00:25.514Z,-1.55
2019-02-06T08:02:56.702Z,-1.51
2019-02-06T08:05:27.358Z,-1.46
2019-02-06T08:07:58.080Z,-1.40
2019-02-06T08:10:31.538Z,-1.35
2019-02-06T08:13:02.152Z,-1.30
2019-02-06T08:15:32.920Z,-1.23
2019-02-06T08:18:03.280Z,-1.24
2019-02-06T08:20:33.685Z,-1.19
2019-02-06T08:23:04.380Z,-1.19
2019-02-06T08:25:34.759Z,-1.17
2019-02-06T08:28:05.171Z,-1.13
2019-02-06T08:30:37.762Z,-1.11
2019-02-06T08:33:09.760Z,-1.09
2019-02-06T08:35:40.527Z,-1.08
2019-02-06T08:38:16.682Z,-1.05
2019-02-06T08:40:47.636Z,-1.05
2019-02-06T08:43:18.122Z,-1.01
2019-02-06T08:45:51.279Z,-0.99
2019-02-06T08:48:21.695Z,-0.97
2019-02-06T08:50:52.259Z,-0.97
2019-02-06T08:53:22.875Z,-0.87
2019-02-06T08:55:53.428Z,-0.79
2019-02-06T08:58:26.895Z,-0.88
2019-02-06T09:00:57.511Z,-0.83
2019-02-06T09:03:28.265Z,-0.74
2019-02-06T09:05:58.708Z,-0.76
2019-02-06T09:08:29.452Z,-0.69
2019-02-06T09:11:00.032Z,-0.68
2019-02-06T09:13:31.131Z,-0.67
2019-02-06T09:16:01.814Z,-0.62
2019-02-06T09:18:34.053Z,-0.55
2019-02-06T09:21:07.929Z,-0.50
2019-02-06T09:23:38.677Z,-0.38
2019-02-06T09:26:09.613Z,-0.35
2019-02-06T09:28:42.401Z,-0.33
2019-02-06T09:31:13.263Z,-0.30
2019-02-06T09:33:43.690Z,-0.27
2019-02-06T09:36:14.447Z,-0.16
2019-02-06T09:38:45.166Z,-0.15
2019-02-06T09:41:15.729Z,-0.04
2019-02-06T09:43:46.268Z,0.03
2019-02-06T09:46:16.685Z,0.10
2019-02-06T09:48:47.130Z,0.19
2019-02-06T09:51:19.330Z,0.33
2019-02-06T09:53:50.389Z,0.36
2019-02-06T09:56:20.831Z,0.41
2019-02-06T09:58:51.698Z,0.43
2019-02-06T10:01:22.259Z,0.50
2019-02-06T10:03:52.729Z,0.55
2019-02-06T10:06:23.119Z,0.68
2019-02-06T10:08:54.173Z,0.68
2019-02-06T10:11:24.591Z,0.75
2019-02-06T10:13:59.967Z,0.81
2019-02-06T10:16:30.990Z,0.87
2019-02-06T10:19:01.600Z,0.84
2019-02-06T10:21:32.917Z,0.87
2019-02-06T10:24:06.271Z,0.94
2019-02-06T10:26:38.963Z,0.98
2019-02-06T10:29:11.977Z,1.08
2019-02-06T10:31:42.618Z,1.12
2019-02-06T10:34:13.121Z,1.17
2019-02-06T10:36:43.956Z,1.19
2019-02-06T10:39:14.678Z,1.23
2019-02-06T10:41:47.189Z,1.26
2019-02-06T10:44:17.642Z,1.22
2019-02-06T10:46:48.388Z,1.31
2019-02-06T10:49:21.753Z,1.32
2019-02-06T10:51:52.381Z,1.31
2019-02-06T10:54:22.839Z,1.33
2019-02-06T10:56:53.275Z,1.38
2019-02-06T10:59:23.810Z,1.47
2019-02-06T11:01:54.650Z,1.51
2019-02-06T11:04:25.370Z,1.47
2019-02-06T11:06:56.434Z,1.56
2019-02-06T11:09:26.915Z,1.62
2019-02-06T11:11:57.449Z,1.72
2019-02-06T11:14:29.060Z,1.65
2019-02-06T11:17:01.219Z,1.59
2019-02-06T11:19:31.516Z,1.51
2019-02-06T11:22:01.920Z,1.51
2019-02-06T11:24:32.505Z,1.57
2019-02-06T11:27:03.042Z,1.70
2019-02-06T11:29:33.409Z,1.79
2019-02-06T11:32:05.269Z,1.88
2019-02-06T11:34:35.710Z,1.92
2019-02-06T11:37:06.378Z,1.97
2019-02-06T11:39:36.813Z,2.03
2019-02-06T11:42:07.208Z,2.04
2019-02-06T11:44:37.820Z,2.01
2019-02-06T11:47:08.227Z,1.99
2019-02-06T11:49:40.969Z,2.06
2019-02-06T11:52:12.028Z,2.18
2019-02-06T11:54:42.624Z,2.16
2019-02-06T11:57:16.631Z,2.16
2019-02-06T11:59:47.108Z,2.18
2019-02-06T12:02:22.468Z,2.21
2019-02-06T12:04:53.082Z,2.28
2019-02-06T12:07:24.103Z,2.29
2019-02-06T12:09:54.421Z,2.33
2019-02-06T12:12:24.873Z,2.37
2019-02-06T12:14:55.834Z,2.39
2019-02-06T12:17:26.235Z,2.45
2019-02-06T12:19:56.689Z,2.48
2019-02-06T12:22:29.189Z,2.50
2019-02-06T12:24:59.622Z,2.52
2019-02-06T12:27:30.206Z,2.56
2019-02-06T12:30:00.779Z,2.67
2019-02-06T12:32:31.235Z,2.64
2019-02-06T12:35:03.100Z,2.71
2019-02-06T12:37:33.600Z,2.58
2019-02-06T12:40:07.375Z,2.35
2019-02-06T12:42:37.921Z,2.39
2019-02-06T12:45:08.675Z,2.47
2019-02-06T12:47:44.576Z,2.56
2019-02-06T12:50:15.591Z,2.61
2019-02-06T12:52:46.054Z,2.72
2019-02-06T12:55:19.763Z,2.84
2019-02-06T12:57:50.669Z,2.95
2019-02-06T13:00:32.102Z,3.10
2019-02-06T13:03:03.094Z,3.14
2019-02-06T13:05:34.785Z,3.28
2019-02-06T13:08:06.376Z,3.36
2019-02-06T13:10:37.077Z,3.35
2019-02-06T13:13:07.713Z,3.44
2019-02-06T13:15:38.472Z,3.41
2019-02-06T13:18:09.517Z,3.49
2019-02-06T13:20:40.095Z,3.58
2019-02-06T13:23:10.521Z,3.69
2019-02-06T13:25:41.055Z,3.79
2019-02-06T13:28:11.968Z,3.89
2019-02-06T13:30:43.052Z,3.98
2019-02-06T13:33:13.517Z,4.04
2019-02-06T13:35:44.566Z,4.01
2019-02-06T13:38:15.067Z,3.96
2019-02-06T13:40:46.253Z,3.99
2019-02-06T13:43:16.897Z,4.00
2019-02-06T13:45:48.278Z,4.01
2019-02-06T13:48:18.744Z,4.07
2019-02-06T13:50:49.528Z,4.04
2019-02-06T13:53:20.068Z,4.06
2019-02-06T13:55:51.439Z,4.09
2019-02-06T13:58:22.095Z,4.12
2019-02-06T14:00:52.711Z,4.20
2019-02-06T14:03:26.617Z,4.19
2019-02-06T14:05:57.162Z,4.23
2019-02-06T14:08:28.042Z,4.30
2019-02-06T14:11:00.871Z,4.37
2019-02-06T14:13:31.183Z,4.55
2019-02-06T14:16:04.091Z,4.71
2019-02-06T14:18:34.894Z,4.71
2019-02-06T14:21:09.847Z,4.74
2019-02-06T14:24:29.453Z,4.73
2019-02-06T14:27:15.824Z,4.70
2019-02-06T14:30:29.014Z,4.54
2019-02-06T14:33:48.344Z,4.45
2019-02-06T14:36:53.755Z,4.29
2019-02-06T14:39:55.561Z,4.16
2019-02-06T14:42:57.442Z,4.07
2019-02-06T14:46:22.628Z,4.02
2019-02-06T14:49:35.852Z,3.99
2019-02-06T14:52:48.547Z,3.92
2019-02-06T14:55:53.264Z,3.95
2019-02-06T14:58:59.712Z,3.96
2019-02-06T15:02:16.605Z,3.95
2019-02-06T15:05:24.089Z,3.92
2019-02-06T15:08:37.292Z,3.94
2019-02-06T15:11:57.560Z,3.89
2019-02-06T15:14:55.920Z,3.90
2019-02-06T15:18:22.083Z,3.93
2019-02-06T15:21:30.903Z,3.97
2019-02-06T15:24:41.268Z,3.96
2019-02-06T15:27:55.462Z,3.93
2019-02-06T15:30:54.328Z,3.93
2019-02-06T15:34:11.616Z,3.90
2019-02-06T15:37:28.977Z,3.85
2019-02-06T15:40:27.096Z,3.83
2019-02-06T15:43:31.508Z,3.79
2019-02-06T15:46:40.232Z,3.78
2019-02-06T15:49:31.599Z,3.76
2019-02-06T15:52:39.675Z,3.69
2019-02-06T15:56:12.097Z,3.71
2019-02-06T15:59:11.998Z,3.70
2019-02-06T16:02:26.192Z,3.67
2019-02-06T16:05:53.988Z,3.67
2019-02-06T16:09:10.418Z,3.64
2019-02-06T16:12:15.901Z,3.59
2019-02-06T16:15:27.693Z,3.58
2019-02-06T16:18:26.161Z,3.60
2019-02-06T16:21:23.281Z,3.60
2019-02-06T16:24:09.576Z,3.54
2019-02-06T16:27:12.034Z,3.54
2019-02-06T16:30:19.414Z,3.52
2019-02-06T16:33:30.231Z,3.49
2019-02-06T16:36:31.780Z,3.43
2019-02-06T16:39:30.096Z,3.39
2019-02-06T16:42:40.000Z,3.35
2019-02-06T16:45:59.728Z,3.35
2019-02-06T16:49:07.349Z,3.31
2019-02-06T16:52:13.912Z,3.31
2019-02-06T16:55:22.315Z,3.29
2019-02-06T16:58:22.588Z,3.29
2019-02-06T17:01:34.271Z,3.27
2019-02-06T17:04:48.263Z,3.20
2019-02-06T17:07:31.869Z,3.18
2019-02-06T17:11:01.511Z,3.15
2019-02-06T17:14:20.031Z,3.12
2019-02-06T17:17:18.571Z,3.08
2019-02-06T17:20:16.031Z,3.07
2019-02-06T17:23:10.540Z,3.00
2019-02-06T17:26:18.077Z,2.98
2019-02-06T17:29:47.653Z,2.91
2019-02-06T17:33:08.130Z,2.88
2019-02-06T17:36:05.760Z,2.82
2019-02-06T17:39:24.194Z,2.79
2019-02-06T17:42:45.521Z,2.76
2019-02-06T17:46:14.601Z,2.78
2019-02-06T17:49:25.747Z,2.77
2019-02-06T17:52:32.860Z,2.66
2019-02-06T17:55:20.488Z,2.68
2019-02-06T17:57:53.129Z,2.56
2019-02-06T18:00:47.530Z,2.52
2019-02-06T18:03:17.949Z,2.49
2019-02-06T18:05:49.464Z,2.46
2019-02-06T18:08:19.955Z,2.41
2019-02-06T18:10:50.394Z,2.37
2019-02-06T18:13:24.097Z,2.34
2019-02-06T18:15:54.540Z,2.28
2019-02-06T18:18:27.382Z,2.32
2019-02-06T18:20:57.776Z,2.25
2019-02-06T18:23:28.255Z,2.23
2019-02-06T18:25:58.670Z,2.19
2019-02-06T18:28:29.311Z,2.18
2019-02-06T18:30:59.876Z,2.15
2019-02-06T18:33:31.588Z,2.12
2019-02-06T18:36:02.615Z,2.07
2019-02-06T18:38:33.280Z,2.03
2019-02-06T18:41:03.828Z,1.96
2019-02-06T18:43:34.249Z,1.93
2019-02-06T18:46:04.748Z,1.87
2019-02-06T18:48:36.119Z,1.80
2019-02-06T18:51:06.751Z,1.76
2019-02-06T18:53:37.301Z,1.72
2019-02-06T18:56:10.935Z,1.64
2019-02-06T18:58:41.330Z,1.60
2019-02-06T19:01:11.808Z,1.59
2019-02-06T19:03:46.346Z,1.56
2019-02-06T19:06:18.945Z,1.52
2019-02-06T19:08:49.214Z,1.47
2019-02-06T19:11:19.884Z,1.42
2019-02-06T19:13:50.332Z,1.37
2019-02-06T19:16:21.107Z,1.36
2019-02-06T19:18:55.459Z,1.33
2019-02-06T19:21:31.521Z,1.29
2019-02-06T19:24:02.115Z,1.19
2019-02-06T19:26:32.647Z,1.16
2019-02-06T19:29:03.217Z,1.11
2019-02-06T19:31:33.843Z,1.10
2019-02-06T19:34:06.939Z,1.09
2019-02-06T19:36:37.308Z,1.04
2019-02-06T19:39:10.790Z,1.01
2019-02-06T19:41:41.235Z,1.00
2019-02-06T19:44:11.648Z,1.02
2019-02-06T19:46:42.140Z,0.98
2019-02-06T19:49:13.209Z,0.93
2019-02-06T19:51:43.857Z,0.92
2019-02-06T19:54:14.315Z,0.92
2019-02-06T19:56:44.812Z,0.88
2019-02-06T19:59:15.289Z,0.89
2019-02-06T20:01:45.821Z,0.86
2019-02-06T20:04:16.686Z,0.87
2019-02-06T20:06:47.159Z,0.82
2019-02-06T20:09:17.569Z,0.79
2019-02-06T20:11:47.979Z,0.77
2019-02-06T20:14:18.416Z,0.73
2019-02-06T20:16:48.845Z,0.70
2019-02-06T20:19:20.777Z,0.66
2019-02-06T20:21:51.211Z,0.70
2019-02-06T20:24:21.604Z,0.68
2019-02-06T20:26:51.974Z,0.67
2019-02-06T20:29:22.464Z,0.64
2019-02-06T20:31:52.901Z,0.61
2019-02-06T20:34:23.238Z,0.63
2019-02-06T20:37:11.767Z,0.58
2019-02-06T20:39:56.962Z,0.61
2019-02-06T20:42:44.589Z,0.61
2019-02-06T20:45:15.831Z,0.55
2019-02-06T20:47:46.332Z,0.54
2019-02-06T20:50:24.785Z,0.53
2019-02-06T20:52:55.394Z,0.51
2019-02-06T20:55:25.828Z,0.48
2019-02-06T20:57:56.676Z,0.45
2019-02-06T21:00:29.155Z,0.46
2019-02-06T21:02:59.933Z,0.42
2019-02-06T21:05:30.500Z,0.42
2019-02-06T21:08:01.291Z,0.39
2019-02-06T21:10:32.924Z,0.38
2019-02-06T21:13:03.329Z,0.32
2019-02-06T21:15:37.384Z,0.33
2019-02-06T21:18:08.725Z,0.29
2019-02-06T21:20:40.126Z,0.28
2019-02-06T21:23:11.176Z,0.27
2019-02-06T21:25:42.489Z,0.27
2019-02-06T21:28:13.004Z,0.29
2019-02-06T21:30:43.616Z,0.26
2019-02-06T21:33:14.708Z,0.26
2019-02-06T21:35:48.431Z,0.26
2019-02-06T21:38:18.887Z,0.23
2019-02-06T21:40:49.312Z,0.25
2019-02-06T21:43:19.916Z,0.17
2019-02-06T21:45:50.267Z,0.17
2019-02-06T21:48:22.352Z,0.13
2019-02-06T21:50:52.830Z,0.12
2019-02-06T21:53:23.276Z,0.11
2019-02-06T21:55:53.722Z,0.09
2019-02-06T21:58:24.102Z,0.07
2019-02-06T22:00:54.475Z,0.12
2019-02-06T22:03:32.478Z,0.13
2019-02-06T22:06:04.916Z,0.11
2019-02-06T22:08:35.680Z,0.06
2019-02-06T22:11:06.138Z,0.07
2019-02-06T22:13:36.888Z,0.10
2019-02-06T22:16:07.675Z,0.13
2019-02-06T22:18:38.105Z,0.08
2019-02-06T22:21:08.540Z,0.10
2019-02-06T22:23:39.271Z,0.10
2019-02-06T22:26:10.307Z,0.07
2019-02-06T22:28:43.870Z,0.07
2019-02-06T22:31:14.615Z,0.06
2019-02-06T22:33:45.072Z,0.10
2019-02-06T22:36:15.899Z,0.05
2019-02-06T22:38:46.335Z,0.06
2019-02-06T22:41:16.759Z,0.09
2019-02-06T22:43:48.389Z,0.05
2019-02-06T22:46:19.524Z,0.04
2019-02-06T22:48:49.884Z,-0.01
2019-02-06T22:51:20.365Z,-0.07
2019-02-06T22:53:50.934Z,-0.12
2019-02-06T22:56:21.536Z,-0.09
2019-02-06T22:58:52.027Z,-0.12
2019-02-06T23:01:32.837Z,-0.16
2019-02-06T23:04:03.647Z,-0.13
2019-02-06T23:06:34.285Z,-0.13
2019-02-06T23:09:07.382Z,-0.14
2019-02-06T23:11:37.870Z,-0.15
2019-02-06T23:14:17.106Z,-0.15
2019-02-06T23:16:43.281Z,-0.15
2019-02-06T23:19:13.743Z,-0.20
2019-02-06T23:21:44.175Z,-0.24
2019-02-06T23:24:14.702Z,-0.26
2019-02-06T23:26:45.459Z,-0.35
2019-02-06T23:29:15.870Z,-0.37
2019-02-06T23:31:46.292Z,-0.47
2019-02-06T23:34:16.658Z,-0.49
2019-02-06T23:36:47.032Z,-0.48
2019-02-06T23:39:18.375Z,-0.50
2019-02-06T23:41:49.667Z,-0.55
2019-02-06T23:44:28.511Z,-0.60
2019-02-06T23:46:52.232Z,-0.58
2019-02-06T23:49:23.303Z,-0.54
2019-02-06T23:51:53.717Z,-0.59
2019-02-06T23:54:26.387Z,-0.63
2019-02-06T23:56:57.169Z,-0.63
2019-02-06T23:59:27.662Z,-0.69
